createdAt,value
2018-01-07T00:00:37.429Z,1014.08
2018-01-07T00:01:37.422Z,1014.10
2018-01-07T00:02:37.415Z,1014.10
2018-01-07T00:03:37.410Z,1014.12
2018-01-07T00:04:37.403Z,1014.11
2018-01-07T00:05:37.395Z,1014.13
2018-01-07T00:06:37.391Z,1014.17
2018-01-07T00:07:37.381Z,1014.18
2018-01-07T00:08:37.376Z,1014.18
2018-01-07T00:09:37.368Z,1014.22
2018-01-07T00:10:37.363Z,1014.25
2018-01-07T00:11:37.355Z,1014.25
2018-01-07T00:12:37.359Z,1014.26
2018-01-07T00:13:37.341Z,1014.25
2018-01-07T00:14:37.339Z,1014.25
2018-01-07T00:15:37.329Z,1014.26
2018-01-07T00:16:37.321Z,1014.25
2018-01-07T00:17:37.311Z,1014.30
2018-01-07T00:18:37.308Z,1014.32
2018-01-07T00:19:37.310Z,1014.35
2018-01-07T00:20:37.295Z,1014.37
2018-01-07T00:21:37.288Z,1014.39
2018-01-07T00:22:37.280Z,1014.41
2018-01-07T00:23:37.275Z,1014.41
2018-01-07T00:24:37.268Z,1014.44
2018-01-07T00:25:37.262Z,1014.46
2018-01-07T00:26:37.258Z,1014.45
2018-01-07T00:27:37.248Z,1014.48
2018-01-07T00:28:37.244Z,1014.48
2018-01-07T00:29:37.234Z,1014.52
2018-01-07T00:30:37.229Z,1014.56
2018-01-07T00:31:37.222Z,1014.56
2018-01-07T00:32:37.218Z,1014.58
2018-01-07T00:33:37.209Z,1014.59
2018-01-07T00:34:37.200Z,1014.63
2018-01-07T00:35:37.197Z,1014.67
2018-01-07T00:36:37.185Z,1014.70
2018-01-07T00:37:37.178Z,1014.70
2018-01-07T00:38:37.172Z,1014.76
2018-01-07T00:39:37.165Z,1014.73
2018-01-07T00:40:37.165Z,1014.76
2018-01-07T00:41:37.152Z,1014.77
2018-01-07T00:42:37.146Z,1014.79
2018-01-07T00:43:37.138Z,1014.83
2018-01-07T00:44:37.132Z,1014.84
2018-01-07T00:45:37.127Z,1014.86
2018-01-07T00:46:37.118Z,1014.85
2018-01-07T00:47:37.111Z,1014.94
2018-01-07T00:48:37.104Z,1014.91
2018-01-07T00:49:37.097Z,1014.95
2018-01-07T00:50:37.092Z,1014.94
2018-01-07T00:51:37.085Z,1014.95
2018-01-07T00:52:37.081Z,1014.96
2018-01-07T00:53:37.073Z,1014.98
2018-01-07T00:54:37.060Z,1015.02
2018-01-07T00:55:37.056Z,1015.05
2018-01-07T00:56:37.049Z,1015.04
2018-01-07T00:57:37.043Z,1015.02
2018-01-07T00:58:37.038Z,1015.01
2018-01-07T00:59:37.031Z,1015.04
2018-01-07T01:00:37.022Z,1014.99
2018-01-07T01:01:37.014Z,1015.01
2018-01-07T01:02:37.007Z,1015.03
2018-01-07T01:03:37.001Z,1015.07
2018-01-07T01:04:36.997Z,1015.07
2018-01-07T01:05:36.994Z,1015.07
2018-01-07T01:06:36.983Z,1015.08
2018-01-07T01:07:36.977Z,1015.11
2018-01-07T01:08:36.968Z,1015.14
2018-01-07T01:09:36.959Z,1015.10
2018-01-07T01:10:36.953Z,1015.16
2018-01-07T01:11:36.942Z,1015.18
2018-01-07T01:12:36.940Z,1015.17
2018-01-07T01:13:36.932Z,1015.25
2018-01-07T01:14:36.926Z,1015.23
2018-01-07T01:15:36.919Z,1015.23
2018-01-07T01:16:36.913Z,1015.29
2018-01-07T01:17:36.904Z,1015.32
2018-01-07T01:18:36.900Z,1015.36
2018-01-07T01:19:36.892Z,1015.38
2018-01-07T01:20:36.883Z,1015.39
2018-01-07T01:21:36.879Z,1015.38
2018-01-07T01:22:36.873Z,1015.39
2018-01-07T01:23:36.865Z,1015.40
2018-01-07T01:24:36.854Z,1015.36
2018-01-07T01:25:36.848Z,1015.39
2018-01-07T01:26:36.843Z,1015.40
2018-01-07T01:27:36.832Z,1015.38
2018-01-07T01:28:36.826Z,1015.39
2018-01-07T01:29:36.820Z,1015.41
2018-01-07T01:30:36.813Z,1015.46
2018-01-07T01:31:36.815Z,1015.45
2018-01-07T01:32:36.799Z,1015.47
2018-01-07T01:33:36.791Z,1015.50
2018-01-07T01:34:36.785Z,1015.46
2018-01-07T01:35:36.777Z,1015.49
2018-01-07T01:36:36.769Z,1015.56
2018-01-07T01:37:36.764Z,1015.57
2018-01-07T01:38:36.758Z,1015.57
2018-01-07T01:39:36.749Z,1015.62
2018-01-07T01:40:36.739Z,1015.63
2018-01-07T01:41:36.736Z,1015.63
2018-01-07T01:42:36.724Z,1015.61
2018-01-07T01:43:36.723Z,1015.67
2018-01-07T01:44:36.712Z,1015.69
2018-01-07T01:45:36.709Z,1015.70
2018-01-07T01:46:36.695Z,1015.68
2018-01-07T01:47:36.692Z,1015.72
2018-01-07T01:48:36.681Z,1015.72
2018-01-07T01:49:36.676Z,1015.75
2018-01-07T01:50:36.671Z,1015.80
2018-01-07T01:51:36.662Z,1015.84
2018-01-07T01:52:36.655Z,1015.87
2018-01-07T01:53:36.653Z,1015.90
2018-01-07T01:54:36.639Z,1015.92
2018-01-07T01:55:36.634Z,1015.92
2018-01-07T01:56:36.625Z,1015.96
2018-01-07T01:57:36.620Z,1016.00
2018-01-07T01:58:36.611Z,1016.02
2018-01-07T01:59:36.608Z,1016.02
2018-01-07T02:00:36.598Z,1016.04
2018-01-07T02:01:36.590Z,1016.10
2018-01-07T02:02:36.582Z,1016.08
2018-01-07T02:03:36.580Z,1016.04
2018-01-07T02:04:36.584Z,1016.08
2018-01-07T02:05:36.561Z,1016.11
2018-01-07T02:06:36.555Z,1016.11
2018-01-07T02:07:36.548Z,1016.15
2018-01-07T02:08:36.540Z,1016.16
2018-01-07T02:09:36.532Z,1016.19
2018-01-07T02:10:36.526Z,1016.20
2018-01-07T02:11:36.545Z,1016.20
2018-01-07T02:12:36.511Z,1016.27
2018-01-07T02:13:36.506Z,1016.26
2018-01-07T02:14:36.498Z,1016.28
2018-01-07T02:15:36.490Z,1016.30
2018-01-07T02:16:36.480Z,1016.32
2018-01-07T02:17:36.475Z,1016.32
2018-01-07T02:18:36.467Z,1016.34
2018-01-07T02:19:36.460Z,1016.36
2018-01-07T02:20:36.455Z,1016.38
2018-01-07T02:21:36.443Z,1016.42
2018-01-07T02:22:36.441Z,1016.41
2018-01-07T02:23:36.433Z,1016.43
2018-01-07T02:24:36.427Z,1016.42
2018-01-07T02:25:36.419Z,1016.42
2018-01-07T02:26:36.414Z,1016.37
2018-01-07T02:27:36.406Z,1016.41
2018-01-07T02:28:36.397Z,1016.45
2018-01-07T02:29:36.390Z,1016.43
2018-01-07T02:30:36.383Z,1016.45
2018-01-07T02:31:36.374Z,1016.43
2018-01-07T02:32:36.369Z,1016.53
2018-01-07T02:33:36.362Z,1016.55
2018-01-07T02:34:36.352Z,1016.57
2018-01-07T02:35:36.347Z,1016.56
2018-01-07T02:36:36.342Z,1016.60
2018-01-07T02:37:36.332Z,1016.63
2018-01-07T02:38:36.324Z,1016.61
2018-01-07T02:39:36.318Z,1016.65
2018-01-07T02:40:36.309Z,1016.66
2018-01-07T02:41:36.314Z,1016.67
2018-01-07T02:42:36.298Z,1016.72
2018-01-07T02:43:36.290Z,1016.70
2018-01-07T02:44:36.282Z,1016.73
2018-01-07T02:45:36.274Z,1016.76
2018-01-07T02:46:36.273Z,1016.74
2018-01-07T02:47:36.262Z,1016.74
2018-01-07T02:48:36.255Z,1016.76
2018-01-07T02:49:36.246Z,1016.72
2018-01-07T02:50:36.244Z,1016.73
2018-01-07T02:51:36.234Z,1016.77
2018-01-07T02:52:36.226Z,1016.80
2018-01-07T02:53:36.215Z,1016.78
2018-01-07T02:54:36.215Z,1016.78
2018-01-07T02:55:36.202Z,1016.76
2018-01-07T02:56:36.195Z,1016.77
2018-01-07T02:57:36.188Z,1016.82
2018-01-07T02:58:36.181Z,1016.81
2018-01-07T02:59:36.175Z,1016.84
2018-01-07T03:00:36.162Z,1016.82
2018-01-07T03:01:36.161Z,1016.90
2018-01-07T03:02:36.152Z,1016.90
2018-01-07T03:03:36.145Z,1016.92
2018-01-07T03:04:36.137Z,1016.93
2018-01-07T03:05:36.131Z,1016.94
2018-01-07T03:06:36.124Z,1017.03
2018-01-07T03:07:36.123Z,1016.97
2018-01-07T03:08:36.107Z,1017.01
2018-01-07T03:09:36.100Z,1017.03
2018-01-07T03:10:36.093Z,1017.09
2018-01-07T03:11:36.085Z,1017.13
2018-01-07T03:12:36.081Z,1017.14
2018-01-07T03:13:36.072Z,1017.13
2018-01-07T03:14:36.067Z,1017.19
2018-01-07T03:15:36.057Z,1017.22
2018-01-07T03:16:36.048Z,1017.22
2018-01-07T03:17:36.044Z,1017.22
2018-01-07T03:18:36.040Z,1017.22
2018-01-07T03:19:36.031Z,1017.23
2018-01-07T03:20:36.030Z,1017.26
2018-01-07T03:21:36.013Z,1017.30
2018-01-07T03:22:36.008Z,1017.36
2018-01-07T03:23:36.001Z,1017.40
2018-01-07T03:24:35.992Z,1017.38
2018-01-07T03:25:35.984Z,1017.41
2018-01-07T03:26:35.975Z,1017.46
2018-01-07T03:27:35.970Z,1017.46
2018-01-07T03:28:35.962Z,1017.46
2018-01-07T03:29:35.954Z,1017.50
2018-01-07T03:30:35.949Z,1017.51
2018-01-07T03:31:35.940Z,1017.53
2018-01-07T03:32:35.932Z,1017.56
2018-01-07T03:33:35.923Z,1017.55
2018-01-07T03:34:35.920Z,1017.59
2018-01-07T03:35:35.909Z,1017.57
2018-01-07T03:36:35.902Z,1017.60
2018-01-07T03:37:35.895Z,1017.59
2018-01-07T03:38:35.889Z,1017.64
2018-01-07T03:39:35.881Z,1017.60
2018-01-07T03:40:35.872Z,1017.73
2018-01-07T03:41:35.868Z,1017.74
2018-01-07T03:42:35.859Z,1017.76
2018-01-07T03:43:35.852Z,1017.74
2018-01-07T03:44:35.843Z,1017.77
2018-01-07T03:45:35.836Z,1017.85
2018-01-07T03:46:35.829Z,1017.85
2018-01-07T03:47:35.821Z,1017.90
2018-01-07T03:48:35.815Z,1017.89
2018-01-07T03:49:35.808Z,1017.84
2018-01-07T03:50:35.798Z,1017.92
2018-01-07T03:51:35.792Z,1017.89
2018-01-07T03:52:35.783Z,1017.93
2018-01-07T03:53:35.781Z,1017.98
2018-01-07T03:54:35.772Z,1017.96
2018-01-07T03:55:35.761Z,1018.01
2018-01-07T03:56:35.759Z,1018.00
2018-01-07T03:57:35.746Z,1018.01
2018-01-07T03:58:35.743Z,1018.04
2018-01-07T03:59:35.735Z,1018.04
2018-01-07T04:00:35.724Z,1018.04
2018-01-07T04:01:35.718Z,1018.09
2018-01-07T04:02:35.705Z,1018.06
2018-01-07T04:03:35.702Z,1018.10
2018-01-07T04:04:35.693Z,1018.16
2018-01-07T04:05:35.689Z,1018.21
2018-01-07T04:06:35.680Z,1018.18
2018-01-07T04:07:35.672Z,1018.26
2018-01-07T04:08:35.663Z,1018.22
2018-01-07T04:09:35.658Z,1018.24
2018-01-07T04:10:35.649Z,1018.29
2018-01-07T04:11:35.656Z,1018.29
2018-01-07T04:12:35.637Z,1018.33
2018-01-07T04:13:35.633Z,1018.33
2018-01-07T04:14:35.620Z,1018.35
2018-01-07T04:15:35.611Z,1018.37
2018-01-07T04:16:35.604Z,1018.39
2018-01-07T04:17:35.596Z,1018.42
2018-01-07T04:18:35.590Z,1018.40
2018-01-07T04:19:35.581Z,1018.44
2018-01-07T04:20:35.576Z,1018.44
2018-01-07T04:21:35.567Z,1018.46
2018-01-07T04:22:35.561Z,1018.46
2018-01-07T04:23:35.559Z,1018.50
2018-01-07T04:24:35.543Z,1018.46
2018-01-07T04:25:35.538Z,1018.50
2018-01-07T04:26:35.531Z,1018.54
2018-01-07T04:27:35.523Z,1018.54
2018-01-07T04:28:35.511Z,1018.54
2018-01-07T04:29:35.504Z,1018.51
2018-01-07T04:30:35.498Z,1018.52
2018-01-07T04:31:35.489Z,1018.52
2018-01-07T04:32:35.486Z,1018.50
2018-01-07T04:33:35.475Z,1018.50
2018-01-07T04:34:35.466Z,1018.53
2018-01-07T04:35:35.457Z,1018.53
2018-01-07T04:36:35.450Z,1018.54
2018-01-07T04:37:35.442Z,1018.57
2018-01-07T04:38:35.435Z,1018.64
2018-01-07T04:39:35.430Z,1018.64
2018-01-07T04:40:35.420Z,1018.70
2018-01-07T04:41:35.411Z,1018.72
2018-01-07T04:42:35.404Z,1018.75
2018-01-07T04:43:35.396Z,1018.75
2018-01-07T04:44:35.387Z,1018.77
2018-01-07T04:45:35.381Z,1018.83
2018-01-07T04:46:35.374Z,1018.84
2018-01-07T04:47:35.367Z,1018.85
2018-01-07T04:48:35.356Z,1018.87
2018-01-07T04:49:35.401Z,1018.91
2018-01-07T04:50:35.342Z,1018.96
2018-01-07T04:51:35.334Z,1018.96
2018-01-07T04:52:35.325Z,1018.94
2018-01-07T04:53:35.320Z,1018.99
2018-01-07T04:54:35.311Z,1019.02
2018-01-07T04:55:35.305Z,1018.99
2018-01-07T04:56:35.293Z,1019.04
2018-01-07T04:57:35.286Z,1019.10
2018-01-07T04:58:35.275Z,1019.10
2018-01-07T04:59:35.271Z,1019.09
2018-01-07T05:00:35.262Z,1019.12
2018-01-07T05:01:35.254Z,1019.14
2018-01-07T05:02:35.248Z,1019.18
2018-01-07T05:03:35.242Z,1019.19
2018-01-07T05:04:35.232Z,1019.16
2018-01-07T05:05:35.225Z,1019.21
2018-01-07T05:06:35.216Z,1019.23
2018-01-07T05:07:35.207Z,1019.25
2018-01-07T05:08:35.199Z,1019.27
2018-01-07T05:09:35.192Z,1019.27
2018-01-07T05:10:35.184Z,1019.33
2018-01-07T05:11:35.175Z,1019.35
2018-01-07T05:12:35.168Z,1019.39
2018-01-07T05:13:35.160Z,1019.38
2018-01-07T05:14:35.153Z,1019.38
2018-01-07T05:15:35.146Z,1019.41
2018-01-07T05:16:35.136Z,1019.47
2018-01-07T05:17:35.128Z,1019.45
2018-01-07T05:18:35.120Z,1019.45
2018-01-07T05:19:35.112Z,1019.46
2018-01-07T05:20:35.104Z,1019.53
2018-01-07T05:21:35.096Z,1019.57
2018-01-07T05:22:35.088Z,1019.59
2018-01-07T05:23:35.081Z,1019.59
2018-01-07T05:24:35.075Z,1019.63
2018-01-07T05:25:35.065Z,1019.65
2018-01-07T05:26:35.059Z,1019.68
2018-01-07T05:27:35.049Z,1019.71
2018-01-07T05:28:35.041Z,1019.72
2018-01-07T05:29:35.032Z,1019.70
2018-01-07T05:30:35.025Z,1019.74
2018-01-07T05:31:35.016Z,1019.75
2018-01-07T05:32:35.010Z,1019.75
2018-01-07T05:33:35.003Z,1019.75
2018-01-07T05:34:34.994Z,1019.75
2018-01-07T05:35:34.985Z,1019.81
2018-01-07T05:36:34.976Z,1019.83
2018-01-07T05:37:34.969Z,1019.90
2018-01-07T05:38:34.963Z,1019.89
2018-01-07T05:39:34.954Z,1019.93
2018-01-07T05:40:34.944Z,1019.95
2018-01-07T05:41:34.938Z,1020.00
2018-01-07T05:42:34.930Z,1019.96
2018-01-07T05:43:34.936Z,1019.97
2018-01-07T05:44:34.913Z,1019.98
2018-01-07T05:45:34.905Z,1020.03
2018-01-07T05:46:34.897Z,1019.99
2018-01-07T05:47:34.893Z,1020.08
2018-01-07T05:48:34.880Z,1020.08
2018-01-07T05:49:34.872Z,1020.11
2018-01-07T05:50:34.866Z,1020.10
2018-01-07T05:51:34.859Z,1020.11
2018-01-07T05:52:34.844Z,1020.12
2018-01-07T05:53:34.840Z,1020.16
2018-01-07T05:54:34.833Z,1020.19
2018-01-07T05:55:34.825Z,1020.22
2018-01-07T05:56:34.821Z,1020.20
2018-01-07T05:57:34.808Z,1020.26
2018-01-07T05:58:34.801Z,1020.28
2018-01-07T05:59:34.792Z,1020.32
2018-01-07T06:00:34.787Z,1020.31
2018-01-07T06:01:34.777Z,1020.34
2018-01-07T06:02:34.776Z,1020.36
2018-01-07T06:03:34.759Z,1020.36
2018-01-07T06:04:34.751Z,1020.41
2018-01-07T06:05:34.744Z,1020.44
2018-01-07T06:06:34.756Z,1020.45
2018-01-07T06:07:34.727Z,1020.47
2018-01-07T06:08:34.718Z,1020.52
2018-01-07T06:09:34.716Z,1020.54
2018-01-07T06:10:34.705Z,1020.55
2018-01-07T06:11:34.694Z,1020.55
2018-01-07T06:12:34.684Z,1020.59
2018-01-07T06:13:34.674Z,1020.63
2018-01-07T06:14:34.671Z,1020.61
2018-01-07T06:15:34.663Z,1020.69
2018-01-07T06:16:34.655Z,1020.71
2018-01-07T06:17:34.649Z,1020.68
2018-01-07T06:18:34.638Z,1020.69
2018-01-07T06:19:34.628Z,1020.70
2018-01-07T06:20:34.619Z,1020.71
2018-01-07T06:21:34.612Z,1020.79
2018-01-07T06:22:34.603Z,1020.84
2018-01-07T06:23:34.597Z,1020.84
2018-01-07T06:24:34.586Z,1020.87
2018-01-07T06:25:34.578Z,1020.88
2018-01-07T06:26:34.570Z,1020.92
2018-01-07T06:27:34.561Z,1020.97
2018-01-07T06:28:34.556Z,1020.98
2018-01-07T06:29:34.551Z,1021.03
2018-01-07T06:30:34.537Z,1021.02
2018-01-07T06:31:34.528Z,1021.06
2018-01-07T06:32:34.520Z,1021.06
2018-01-07T06:33:34.512Z,1021.09
2018-01-07T06:34:34.503Z,1021.09
2018-01-07T06:35:34.493Z,1021.13
2018-01-07T06:36:34.486Z,1021.16
2018-01-07T06:37:34.479Z,1021.19
2018-01-07T06:38:34.468Z,1021.18
2018-01-07T06:39:34.462Z,1021.24
2018-01-07T06:40:34.451Z,1021.25
2018-01-07T06:41:34.445Z,1021.26
2018-01-07T06:42:34.436Z,1021.32
2018-01-07T06:43:34.427Z,1021.30
2018-01-07T06:44:34.468Z,1021.33
2018-01-07T06:45:34.409Z,1021.34
2018-01-07T06:46:34.434Z,1021.42
2018-01-07T06:47:34.393Z,1021.40
2018-01-07T06:48:34.383Z,1021.39
2018-01-07T06:49:34.375Z,1021.39
2018-01-07T06:50:34.369Z,1021.46
2018-01-07T06:51:34.361Z,1021.48
2018-01-07T06:52:34.351Z,1021.53
2018-01-07T06:53:34.344Z,1021.56
2018-01-07T06:54:34.334Z,1021.58
2018-01-07T06:55:34.326Z,1021.60
2018-01-07T06:56:34.316Z,1021.58
2018-01-07T06:57:34.308Z,1021.62
2018-01-07T06:58:34.301Z,1021.67
2018-01-07T06:59:34.292Z,1021.74
2018-01-07T07:00:34.307Z,1021.77
2018-01-07T07:01:34.275Z,1021.81
2018-01-07T07:02:34.267Z,1021.86
2018-01-07T07:03:34.265Z,1021.85
2018-01-07T07:04:34.249Z,1021.89
2018-01-07T07:05:34.246Z,1021.88
2018-01-07T07:06:34.234Z,1021.91
2018-01-07T07:07:34.224Z,1021.90
2018-01-07T07:08:34.217Z,1021.89
2018-01-07T07:09:34.206Z,1021.88
2018-01-07T07:10:34.198Z,1021.91
2018-01-07T07:11:34.191Z,1021.95
2018-01-07T07:12:34.184Z,1021.98
2018-01-07T07:13:34.173Z,1021.98
2018-01-07T07:14:34.163Z,1022.05
2018-01-07T07:15:34.153Z,1022.01
2018-01-07T07:16:34.144Z,1022.10
2018-01-07T07:17:34.138Z,1022.13
2018-01-07T07:18:34.130Z,1022.13
2018-01-07T07:19:34.125Z,1022.19
2018-01-07T07:20:34.115Z,1022.21
2018-01-07T07:21:34.101Z,1022.25
2018-01-07T07:22:34.094Z,1022.35
2018-01-07T07:23:34.086Z,1022.31
2018-01-07T07:24:34.079Z,1022.37
2018-01-07T07:25:34.069Z,1022.35
2018-01-07T07:26:34.066Z,1022.38
2018-01-07T07:27:34.052Z,1022.36
2018-01-07T07:28:34.044Z,1022.36
2018-01-07T07:29:34.035Z,1022.42
2018-01-07T07:30:34.027Z,1022.42
2018-01-07T07:31:34.023Z,1022.46
2018-01-07T07:32:34.008Z,1022.52
2018-01-07T07:33:34.001Z,1022.53
2018-01-07T07:34:33.991Z,1022.59
2018-01-07T07:35:33.984Z,1022.64
2018-01-07T07:36:33.976Z,1022.62
2018-01-07T07:37:33.966Z,1022.70
2018-01-07T07:38:33.959Z,1022.71
2018-01-07T07:39:33.949Z,1022.75
2018-01-07T07:40:33.940Z,1022.78
2018-01-07T07:41:33.931Z,1022.78
2018-01-07T07:42:33.926Z,1022.85
2018-01-07T07:43:33.916Z,1022.82
2018-01-07T07:44:33.905Z,1022.85
2018-01-07T07:45:33.952Z,1022.89
2018-01-07T07:46:33.890Z,1022.94
2018-01-07T07:47:33.877Z,1022.99
2018-01-07T07:48:33.871Z,1023.02
2018-01-07T07:49:33.863Z,1023.04
2018-01-07T07:50:33.855Z,1023.03
2018-01-07T07:51:33.852Z,1023.05
2018-01-07T07:52:33.837Z,1023.04
2018-01-07T07:53:33.866Z,1023.10
2018-01-07T07:54:33.821Z,1023.09
2018-01-07T07:55:33.852Z,1023.16
2018-01-07T07:56:33.804Z,1023.19
2018-01-07T07:57:33.797Z,1023.23
2018-01-07T07:58:33.787Z,1023.23
2018-01-07T07:59:33.778Z,1023.26
2018-01-07T08:00:33.768Z,1023.28
2018-01-07T08:01:33.760Z,1023.30
2018-01-07T08:02:33.753Z,1023.32
2018-01-07T08:03:33.744Z,1023.35
2018-01-07T08:04:33.735Z,1023.34
2018-01-07T08:05:33.726Z,1023.32
2018-01-07T08:06:33.718Z,1023.32
2018-01-07T08:07:33.711Z,1023.30
2018-01-07T08:08:33.700Z,1023.33
2018-01-07T08:09:33.698Z,1023.34
2018-01-07T08:10:33.683Z,1023.42
2018-01-07T08:11:33.679Z,1023.47
2018-01-07T08:12:33.666Z,1023.51
2018-01-07T08:13:33.657Z,1023.50
2018-01-07T08:14:33.652Z,1023.51
2018-01-07T08:15:33.641Z,1023.54
2018-01-07T08:16:33.636Z,1023.54
2018-01-07T08:17:33.626Z,1023.48
2018-01-07T08:18:33.615Z,1023.46
2018-01-07T08:19:33.611Z,1023.42
2018-01-07T08:20:33.597Z,1023.40
2018-01-07T08:21:33.584Z,1023.37
2018-01-07T08:22:33.581Z,1023.36
2018-01-07T08:23:33.575Z,1023.36
2018-01-07T08:24:33.564Z,1023.35
2018-01-07T08:25:33.558Z,1023.35
2018-01-07T08:26:33.546Z,1023.41
2018-01-07T08:27:33.532Z,1023.40
2018-01-07T08:28:33.531Z,1023.51
2018-01-07T08:29:33.520Z,1023.45
2018-01-07T08:30:33.514Z,1023.49
2018-01-07T08:31:33.510Z,1023.45
2018-01-07T08:32:33.496Z,1023.46
2018-01-07T08:33:33.485Z,1023.50
2018-01-07T08:34:33.477Z,1023.53
2018-01-07T08:35:33.475Z,1023.60
2018-01-07T08:36:33.462Z,1023.68
2018-01-07T08:37:33.457Z,1023.70
2018-01-07T08:38:33.453Z,1023.69
2018-01-07T08:39:33.436Z,1023.70
2018-01-07T08:40:33.427Z,1023.69
2018-01-07T08:41:33.416Z,1023.67
2018-01-07T08:42:33.408Z,1023.65
2018-01-07T08:43:33.400Z,1023.65
2018-01-07T08:44:33.391Z,1023.70
2018-01-07T08:45:33.381Z,1023.71
2018-01-07T08:46:33.378Z,1023.74
2018-01-07T08:47:33.367Z,1023.71
2018-01-07T08:48:33.356Z,1023.75
2018-01-07T08:49:33.347Z,1023.78
2018-01-07T08:50:33.355Z,1023.80
2018-01-07T08:51:33.331Z,1023.78
2018-01-07T08:52:33.322Z,1023.84
2018-01-07T08:53:33.313Z,1023.83
2018-01-07T08:54:33.309Z,1023.88
2018-01-07T08:55:33.294Z,1023.87
2018-01-07T08:56:33.288Z,1023.86
2018-01-07T08:57:33.282Z,1023.84
2018-01-07T08:58:33.272Z,1023.83
2018-01-07T08:59:33.262Z,1023.88
2018-01-07T09:00:33.253Z,1023.88
2018-01-07T09:01:33.247Z,1023.91
2018-01-07T09:02:33.236Z,1023.96
2018-01-07T09:03:33.228Z,1023.96
2018-01-07T09:04:33.219Z,1023.98
2018-01-07T09:05:33.212Z,1023.97
2018-01-07T09:06:33.202Z,1023.98
2018-01-07T09:07:33.194Z,1023.97
2018-01-07T09:08:33.204Z,1023.99
2018-01-07T09:09:33.176Z,1024.02
2018-01-07T09:10:33.168Z,1024.12
2018-01-07T09:11:33.159Z,1024.02
2018-01-07T09:12:33.149Z,1024.03
2018-01-07T09:13:33.143Z,1024.09
2018-01-07T09:14:33.134Z,1024.10
2018-01-07T09:15:33.127Z,1024.23
2018-01-07T09:16:33.120Z,1024.26
2018-01-07T09:17:33.162Z,1024.25
2018-01-07T09:18:33.101Z,1024.22
2018-01-07T09:19:33.096Z,1024.37
2018-01-07T09:20:33.081Z,1024.35
2018-01-07T09:21:33.070Z,1024.31
2018-01-07T09:22:33.065Z,1024.32
2018-01-07T09:23:33.056Z,1024.37
2018-01-07T09:24:33.052Z,1024.38
2018-01-07T09:25:33.040Z,1024.40
2018-01-07T09:26:33.030Z,1024.42
2018-01-07T09:27:33.021Z,1024.50
2018-01-07T09:28:33.013Z,1024.53
2018-01-07T09:29:33.003Z,1024.52
2018-01-07T09:30:32.995Z,1024.49
2018-01-07T09:31:32.985Z,1024.53
2018-01-07T09:32:32.976Z,1024.49
2018-01-07T09:33:32.968Z,1024.53
2018-01-07T09:34:32.961Z,1024.53
2018-01-07T09:35:32.953Z,1024.57
2018-01-07T09:36:32.946Z,1024.58
2018-01-07T09:37:32.936Z,1024.54
2018-01-07T09:38:32.933Z,1024.55
2018-01-07T09:39:32.923Z,1024.53
2018-01-07T09:40:32.907Z,1024.48
2018-01-07T09:41:32.898Z,1024.46
2018-01-07T09:42:32.890Z,1024.56
2018-01-07T09:43:32.885Z,1024.52
2018-01-07T09:44:32.875Z,1024.49
2018-01-07T09:45:32.917Z,1024.53
2018-01-07T09:46:32.856Z,1024.49
2018-01-07T09:47:32.846Z,1024.54
2018-01-07T09:48:32.839Z,1024.46
2018-01-07T09:49:32.831Z,1024.63
2018-01-07T09:50:32.822Z,1024.59
2018-01-07T09:51:32.822Z,1024.61
2018-01-07T09:52:32.805Z,1024.68
2018-01-07T09:53:32.796Z,1024.72
2018-01-07T09:54:32.786Z,1024.76
2018-01-07T09:55:32.775Z,1024.75
2018-01-07T09:56:32.771Z,1024.81
2018-01-07T09:57:32.769Z,1024.78
2018-01-07T09:58:32.758Z,1024.76
2018-01-07T09:59:32.747Z,1024.75
2018-01-07T10:00:32.734Z,1024.74
2018-01-07T10:01:32.725Z,1024.74
2018-01-07T10:02:32.717Z,1024.68
2018-01-07T10:03:32.753Z,1024.79
2018-01-07T10:04:32.696Z,1024.82
2018-01-07T10:05:32.692Z,1024.79
2018-01-07T10:06:32.683Z,1024.76
2018-01-07T10:07:32.674Z,1024.73
2018-01-07T10:08:32.665Z,1024.75
2018-01-07T10:09:32.656Z,1024.73
2018-01-07T10:10:32.648Z,1024.74
2018-01-07T10:11:32.637Z,1024.82
2018-01-07T10:12:32.629Z,1024.92
2018-01-07T10:13:32.622Z,1024.84
2018-01-07T10:14:32.611Z,1024.93
2018-01-07T10:15:32.601Z,1024.91
2018-01-07T10:16:32.592Z,1024.95
2018-01-07T10:17:32.585Z,1024.96
2018-01-07T10:18:32.584Z,1025.07
2018-01-07T10:19:32.571Z,1025.05
2018-01-07T10:20:32.563Z,1025.09
2018-01-07T10:21:32.555Z,1024.98
2018-01-07T10:22:32.543Z,1025.08
2018-01-07T10:23:32.536Z,1025.01
2018-01-07T10:24:32.525Z,1025.09
2018-01-07T10:25:32.516Z,1024.98
2018-01-07T10:26:32.509Z,1025.07
2018-01-07T10:27:32.504Z,1025.03
2018-01-07T10:28:32.491Z,1025.06
2018-01-07T10:29:32.490Z,1025.14
2018-01-07T10:30:32.480Z,1025.15
2018-01-07T10:31:32.468Z,1025.10
2018-01-07T10:32:32.458Z,1025.12
2018-01-07T10:33:32.447Z,1025.17
2018-01-07T10:34:32.437Z,1025.20
2018-01-07T10:35:32.433Z,1025.22
2018-01-07T10:36:32.429Z,1025.29
2018-01-07T10:37:32.414Z,1025.31
2018-01-07T10:38:32.406Z,1025.38
2018-01-07T10:39:32.483Z,1025.41
2018-01-07T10:40:32.388Z,1025.39
2018-01-07T10:41:32.379Z,1025.32
2018-01-07T10:42:32.371Z,1025.38
2018-01-07T10:43:32.363Z,1025.42
2018-01-07T10:44:32.353Z,1025.47
2018-01-07T10:45:32.344Z,1025.45
2018-01-07T10:46:32.339Z,1025.44
2018-01-07T10:47:32.329Z,1025.48
2018-01-07T10:48:32.318Z,1025.45
2018-01-07T10:49:32.310Z,1025.51
2018-01-07T10:50:32.302Z,1025.50
2018-01-07T10:51:32.362Z,1025.51
2018-01-07T10:52:32.285Z,1025.52
2018-01-07T10:53:32.275Z,1025.58
2018-01-07T10:54:32.266Z,1025.52
2018-01-07T10:55:32.258Z,1025.57
2018-01-07T10:56:32.251Z,1025.56
2018-01-07T10:57:32.275Z,1025.54
2018-01-07T10:58:32.233Z,1025.59
2018-01-07T10:59:32.227Z,1025.56
2018-01-07T11:00:32.216Z,1025.58
2018-01-07T11:01:32.208Z,1025.66
2018-01-07T11:02:32.200Z,1025.63
2018-01-07T11:03:32.190Z,1025.63
2018-01-07T11:04:32.188Z,1025.55
2018-01-07T11:05:32.186Z,1025.54
2018-01-07T11:06:32.166Z,1025.53
2018-01-07T11:07:32.165Z,1025.48
2018-01-07T11:08:32.150Z,1025.51
2018-01-07T11:09:32.143Z,1025.49
2018-01-07T11:10:32.132Z,1025.55
2018-01-07T11:11:32.119Z,1025.49
2018-01-07T11:12:32.116Z,1025.55
2018-01-07T11:13:32.108Z,1025.56
2018-01-07T11:14:32.100Z,1025.52
2018-01-07T11:15:32.091Z,1025.56
2018-01-07T11:16:32.083Z,1025.51
2018-01-07T11:17:32.074Z,1025.54
2018-01-07T11:18:32.060Z,1025.50
2018-01-07T11:19:32.057Z,1025.55
2018-01-07T11:20:32.054Z,1025.59
2018-01-07T11:21:32.043Z,1025.47
2018-01-07T11:22:32.034Z,1025.60
2018-01-07T11:23:32.026Z,1025.58
2018-01-07T11:24:32.015Z,1025.60
2018-01-07T11:25:32.041Z,1025.57
2018-01-07T11:26:32.000Z,1025.50
2018-01-07T11:27:31.991Z,1025.54
2018-01-07T11:28:31.982Z,1025.52
2018-01-07T11:29:31.973Z,1025.43
2018-01-07T11:30:31.966Z,1025.51
2018-01-07T11:31:31.958Z,1025.51
2018-01-07T11:32:31.948Z,1025.51
2018-01-07T11:33:31.939Z,1025.50
2018-01-07T11:34:31.932Z,1025.48
2018-01-07T11:35:31.924Z,1025.52
2018-01-07T11:36:31.912Z,1025.50
2018-01-07T11:37:31.906Z,1025.51
2018-01-07T11:38:31.897Z,1025.54
2018-01-07T11:39:31.889Z,1025.49
2018-01-07T11:40:31.882Z,1025.50
2018-01-07T11:41:31.871Z,1025.50
2018-01-07T11:42:31.864Z,1025.50
2018-01-07T11:43:31.856Z,1025.50
2018-01-07T11:44:31.845Z,1025.47
2018-01-07T11:45:31.837Z,1025.46
2018-01-07T11:46:31.824Z,1025.50
2018-01-07T11:47:31.864Z,1025.54
2018-01-07T11:48:31.810Z,1025.48
2018-01-07T11:49:31.803Z,1025.50
2018-01-07T11:50:31.797Z,1025.51
2018-01-07T11:51:31.803Z,1025.51
2018-01-07T11:52:31.780Z,1025.48
2018-01-07T11:53:31.772Z,1025.48
2018-01-07T11:54:31.763Z,1025.52
2018-01-07T11:55:31.749Z,1025.49
2018-01-07T11:56:31.741Z,1025.49
2018-01-07T11:57:31.733Z,1025.51
2018-01-07T11:58:31.727Z,1025.53
2018-01-07T11:59:31.723Z,1025.51
2018-01-07T12:00:31.713Z,1025.48
2018-01-07T12:01:31.701Z,1025.46
2018-01-07T12:02:31.693Z,1025.48
2018-01-07T12:03:31.695Z,1025.53
2018-01-07T12:04:31.674Z,1025.49
2018-01-07T12:05:31.672Z,1025.50